sensor_id;sensor_type;location;lat;lon;timestamp;P1;durP1;ratioP1;P2;durP2;ratioP2
75854;SDS011;64502;59.976;30.316;2023-05-07T00:01:03;3.05;;;1.42;;
75854;SDS011;64502;59.976;30.316;2023-05-07T00:03:30;5.38;;;1.67;;
75854;SDS011;64502;59.976;30.316;2023-05-07T00:05:56;4.20;;;1.48;;
75854;SDS011;64502;59.976;30.316;2023-05-07T00:08:23;2.90;;;1.00;;
75854;SDS011;64502;59.976;30.316;2023-05-07T00:10:48;5.68;;;1.55;;
75854;SDS011;64502;59.976;30.316;2023-05-07T00:13:14;4.35;;;1.25;;
75854;SDS011;64502;59.976;30.316;2023-05-07T00:15:40;5.05;;;1.73;;
75854;SDS011;64502;59.976;30.316;2023-05-07T00:18:05;5.03;;;1.38;;
75854;SDS011;64502;59.976;30.316;2023-05-07T00:20:31;5.32;;;2.15;;
75854;SDS011;64502;59.976;30.316;2023-05-07T00:22:57;5.18;;;2.25;;
75854;SDS011;64502;59.976;30.316;2023-05-07T00:25:22;6.00;;;1.67;;
75854;SDS011;64502;59.976;30.316;2023-05-07T00:27:47;6.10;;;1.63;;
75854;SDS011;64502;59.976;30.316;2023-05-07T00:30:13;4.25;;;1.80;;
75854;SDS011;64502;59.976;30.316;2023-05-07T00:32:39;5.72;;;1.50;;
75854;SDS011;64502;59.976;30.316;2023-05-07T00:35:05;3.50;;;1.30;;
75854;SDS011;64502;59.976;30.316;2023-05-07T00:37:31;4.22;;;1.85;;
75854;SDS011;64502;59.976;30.316;2023-05-07T00:39:56;4.32;;;1.45;;
75854;SDS011;64502;59.976;30.316;2023-05-07T00:42:22;3.15;;;1.48;;
75854;SDS011;64502;59.976;30.316;2023-05-07T00:44:47;3.72;;;1.40;;
75854;SDS011;64502;59.976;30.316;2023-05-07T00:47:12;6.88;;;1.80;;
75854;SDS011;64502;59.976;30.316;2023-05-07T00:49:42;5.93;;;1.48;;
75854;SDS011;64502;59.976;30.316;2023-05-07T00:52:09;5.30;;;1.70;;
75854;SDS011;64502;59.976;30.316;2023-05-07T00:54:38;5.75;;;1.98;;
75854;SDS011;64502;59.976;30.316;2023-05-07T00:57:05;5.55;;;1.60;;
75854;SDS011;64502;59.976;30.316;2023-05-07T00:59:31;5.38;;;1.48;;
75854;SDS011;64502;59.976;30.316;2023-05-07T01:01:58;3.88;;;1.95;;
75854;SDS011;64502;59.976;30.316;2023-05-07T01:04:24;4.93;;;1.58;;
75854;SDS011;64502;59.976;30.316;2023-05-07T01:06:49;4.25;;;1.60;;
75854;SDS011;64502;59.976;30.316;2023-05-07T01:09:17;6.32;;;1.38;;
75854;SDS011;64502;59.976;30.316;2023-05-07T01:11:44;5.03;;;2.30;;
75854;SDS011;64502;59.976;30.316;2023-05-07T01:14:10;4.07;;;1.80;;
75854;SDS011;64502;59.976;30.316;2023-05-07T01:16:36;4.65;;;1.60;;
75854;SDS011;64502;59.976;30.316;2023-05-07T01:19:02;6.75;;;1.98;;
75854;SDS011;64502;59.976;30.316;2023-05-07T01:21:28;4.25;;;1.65;;
75854;SDS011;64502;59.976;30.316;2023-05-07T01:23:58;5.05;;;1.65;;
75854;SDS011;64502;59.976;30.316;2023-05-07T01:26:24;6.22;;;2.10;;
75854;SDS011;64502;59.976;30.316;2023-05-07T01:28:49;4.80;;;1.45;;
75854;SDS011;64502;59.976;30.316;2023-05-07T01:31:15;6.93;;;1.63;;
75854;SDS011;64502;59.976;30.316;2023-05-07T01:33:41;4.15;;;1.60;;
75854;SDS011;64502;59.976;30.316;2023-05-07T01:36:10;6.55;;;1.20;;
75854;SDS011;64502;59.976;30.316;2023-05-07T01:38:38;3.53;;;1.20;;
75854;SDS011;64502;59.976;30.316;2023-05-07T01:41:06;4.88;;;1.30;;
75854;SDS011;64502;59.976;30.316;2023-05-07T01:43:32;5.30;;;1.45;;
75854;SDS011;64502;59.976;30.316;2023-05-07T01:45:58;4.88;;;1.65;;
75854;SDS011;64502;59.976;30.316;2023-05-07T01:48:24;3.30;;;1.05;;
75854;SDS011;64502;59.976;30.316;2023-05-07T01:50:51;2.92;;;1.15;;
75854;SDS011;64502;59.976;30.316;2023-05-07T01:53:16;4.15;;;1.40;;
75854;SDS011;64502;59.976;30.316;2023-05-07T01:55:42;3.95;;;1.17;;
75854;SDS011;64502;59.976;30.316;2023-05-07T01:58:08;2.80;;;0.75;;
75854;SDS011;64502;59.976;30.316;2023-05-07T02:00:33;3.05;;;1.05;;
75854;SDS011;64502;59.976;30.316;2023-05-07T02:02:59;2.13;;;0.70;;
75854;SDS011;64502;59.976;30.316;2023-05-07T02:05:24;3.47;;;1.15;;
75854;SDS011;64502;59.976;30.316;2023-05-07T02:07:50;4.15;;;1.13;;
75854;SDS011;64502;59.976;30.316;2023-05-07T02:10:15;3.13;;;0.80;;
75854;SDS011;64502;59.976;30.316;2023-05-07T02:12:40;4.25;;;1.25;;
75854;SDS011;64502;59.976;30.316;2023-05-07T02:15:07;2.22;;;0.80;;
75854;SDS011;64502;59.976;30.316;2023-05-07T02:17:33;2.95;;;0.82;;
75854;SDS011;64502;59.976;30.316;2023-05-07T02:19:58;3.88;;;0.85;;
75854;SDS011;64502;59.976;30.316;2023-05-07T02:22:24;3.88;;;0.90;;
75854;SDS011;64502;59.976;30.316;2023-05-07T02:24:50;2.25;;;0.82;;
75854;SDS011;64502;59.976;30.316;2023-05-07T02:27:16;4.25;;;0.80;;
75854;SDS011;64502;59.976;30.316;2023-05-07T02:29:41;2.35;;;0.70;;
75854;SDS011;64502;59.976;30.316;2023-05-07T02:32:07;4.10;;;0.80;;
75854;SDS011;64502;59.976;30.316;2023-05-07T02:34:32;2.08;;;0.60;;
75854;SDS011;64502;59.976;30.316;2023-05-07T02:36:58;3.75;;;0.80;;
75854;SDS011;64502;59.976;30.316;2023-05-07T02:39:23;3.10;;;1.00;;
75854;SDS011;64502;59.976;30.316;2023-05-07T02:41:49;2.03;;;0.80;;
75854;SDS011;64502;59.976;30.316;2023-05-07T02:44:14;3.40;;;0.90;;
75854;SDS011;64502;59.976;30.316;2023-05-07T02:46:39;4.00;;;1.08;;
75854;SDS011;64502;59.976;30.316;2023-05-07T02:49:05;5.57;;;0.80;;
75854;SDS011;64502;59.976;30.316;2023-05-07T02:51:31;3.25;;;1.20;;
75854;SDS011;64502;59.976;30.316;2023-05-07T02:53:56;4.13;;;1.17;;
75854;SDS011;64502;59.976;30.316;2023-05-07T02:56:22;3.17;;;1.00;;
75854;SDS011;64502;59.976;30.316;2023-05-07T02:58:47;3.15;;;0.90;;
75854;SDS011;64502;59.976;30.316;2023-05-07T03:01:13;2.28;;;0.82;;
75854;SDS011;64502;59.976;30.316;2023-05-07T03:03:39;2.88;;;0.68;;
75854;SDS011;64502;59.976;30.316;2023-05-07T03:06:04;3.20;;;0.77;;
75854;SDS011;64502;59.976;30.316;2023-05-07T03:08:31;2.72;;;1.02;;
75854;SDS011;64502;59.976;30.316;2023-05-07T03:10:57;3.95;;;0.80;;
75854;SDS011;64502;59.976;30.316;2023-05-07T03:13:22;3.30;;;0.90;;
75854;SDS011;64502;59.976;30.316;2023-05-07T03:15:48;4.07;;;1.23;;
75854;SDS011;64502;59.976;30.316;2023-05-07T03:18:13;2.67;;;0.82;;
75854;SDS011;64502;59.976;30.316;2023-05-07T03:20:39;4.05;;;1.10;;
75854;SDS011;64502;59.976;30.316;2023-05-07T03:23:04;2.15;;;1.00;;
75854;SDS011;64502;59.976;30.316;2023-05-07T03:25:30;2.83;;;0.82;;
75854;SDS011;64502;59.976;30.316;2023-05-07T03:27:56;3.55;;;1.08;;
75854;SDS011;64502;59.976;30.316;2023-05-07T03:30:21;3.33;;;1.13;;
75854;SDS011;64502;59.976;30.316;2023-05-07T03:32:47;3.33;;;0.73;;
75854;SDS011;64502;59.976;30.316;2023-05-07T03:35:12;2.47;;;1.20;;
75854;SDS011;64502;59.976;30.316;2023-05-07T03:37:38;2.45;;;1.05;;
75854;SDS011;64502;59.976;30.316;2023-05-07T03:40:05;4.22;;;1.25;;
75854;SDS011;64502;59.976;30.316;2023-05-07T03:42:31;2.50;;;0.98;;
75854;SDS011;64502;59.976;30.316;2023-05-07T03:44:56;2.40;;;0.63;;
75854;SDS011;64502;59.976;30.316;2023-05-07T03:47:22;2.00;;;0.80;;
75854;SDS011;64502;59.976;30.316;2023-05-07T03:49:47;3.45;;;0.95;;
75854;SDS011;64502;59.976;30.316;2023-05-07T03:52:14;2.55;;;0.73;;
75854;SDS011;64502;59.976;30.316;2023-05-07T03:54:39;3.38;;;0.88;;
75854;SDS011;64502;59.976;30.316;2023-05-07T03:57:05;5.72;;;0.90;;
75854;SDS011;64502;59.976;30.316;2023-05-07T03:59:30;4.65;;;1.23;;
75854;SDS011;64502;59.976;30.316;2023-05-07T04:01:56;3.13;;;1.08;;
75854;SDS011;64502;59.976;30.316;2023-05-07T04:04:21;2.15;;;0.65;;
75854;SDS011;64502;59.976;30.316;2023-05-07T04:06:47;5.05;;;0.85;;
75854;SDS011;64502;59.976;30.316;2023-05-07T04:09:12;2.63;;;0.88;;
75854;SDS011;64502;59.976;30.316;2023-05-07T04:11:37;2.72;;;0.70;;
75854;SDS011;64502;59.976;30.316;2023-05-07T04:14:05;3.15;;;1.23;;
75854;SDS011;64502;59.976;30.316;2023-05-07T04:16:30;3.88;;;0.90;;
75854;SDS011;64502;59.976;30.316;2023-05-07T04:18:56;2.42;;;0.52;;
75854;SDS011;64502;59.976;30.316;2023-05-07T04:21:21;1.20;;;0.30;;
75854;SDS011;64502;59.976;30.316;2023-05-07T04:23:47;2.55;;;0.75;;
75854;SDS011;64502;59.976;30.316;2023-05-07T04:26:13;1.63;;;0.60;;
75854;SDS011;64502;59.976;30.316;2023-05-07T04:28:39;1.92;;;0.60;;
75854;SDS011;64502;59.976;30.316;2023-05-07T04:31:05;2.78;;;0.68;;
75854;SDS011;64502;59.976;30.316;2023-05-07T04:33:31;2.65;;;0.70;;
75854;SDS011;64502;59.976;30.316;2023-05-07T04:35:57;2.25;;;0.30;;
75854;SDS011;64502;59.976;30.316;2023-05-07T04:38:27;2.38;;;0.68;;
75854;SDS011;64502;59.976;30.316;2023-05-07T04:40:53;5.93;;;0.70;;
75854;SDS011;64502;59.976;30.316;2023-05-07T04:43:19;2.47;;;0.60;;
75854;SDS011;64502;59.976;30.316;2023-05-07T04:45:45;2.03;;;0.25;;
75854;SDS011;64502;59.976;30.316;2023-05-07T04:48:11;1.75;;;0.50;;
75854;SDS011;64502;59.976;30.316;2023-05-07T04:50:36;2.65;;;0.43;;
75854;SDS011;64502;59.976;30.316;2023-05-07T04:53:01;4.57;;;1.00;;
75854;SDS011;64502;59.976;30.316;2023-05-07T04:55:28;1.67;;;0.68;;
75854;SDS011;64502;59.976;30.316;2023-05-07T04:57:53;2.78;;;0.70;;
75854;SDS011;64502;59.976;30.316;2023-05-07T05:00:18;2.70;;;0.60;;
75854;SDS011;64502;59.976;30.316;2023-05-07T05:02:44;1.58;;;0.43;;
75854;SDS011;64502;59.976;30.316;2023-05-07T05:05:10;1.60;;;0.65;;
75854;SDS011;64502;59.976;30.316;2023-05-07T05:07:36;1.92;;;0.65;;
75854;SDS011;64502;59.976;30.316;2023-05-07T05:10:02;2.90;;;0.95;;
75854;SDS011;64502;59.976;30.316;2023-05-07T05:12:28;2.10;;;0.50;;
75854;SDS011;64502;59.976;30.316;2023-05-07T05:14:54;1.65;;;0.60;;
75854;SDS011;64502;59.976;30.316;2023-05-07T05:17:19;2.00;;;0.68;;
75854;SDS011;64502;59.976;30.316;2023-05-07T05:19:45;2.33;;;0.70;;
75854;SDS011;64502;59.976;30.316;2023-05-07T05:22:10;3.25;;;0.70;;
75854;SDS011;64502;59.976;30.316;2023-05-07T05:24:36;2.47;;;0.30;;
75854;SDS011;64502;59.976;30.316;2023-05-07T05:27:01;1.67;;;0.50;;
75854;SDS011;64502;59.976;30.316;2023-05-07T05:29:27;2.65;;;0.57;;
75854;SDS011;64502;59.976;30.316;2023-05-07T05:31:52;2.65;;;0.60;;
75854;SDS011;64502;59.976;30.316;2023-05-07T05:34:18;2.22;;;0.60;;
75854;SDS011;64502;59.976;30.316;2023-05-07T05:36:44;1.42;;;0.52;;
75854;SDS011;64502;59.976;30.316;2023-05-07T05:39:10;2.53;;;0.40;;
75854;SDS011;64502;59.976;30.316;2023-05-07T05:41:36;1.95;;;0.60;;
75854;SDS011;64502;59.976;30.316;2023-05-07T05:44:01;2.28;;;0.63;;
75854;SDS011;64502;59.976;30.316;2023-05-07T05:46:27;1.75;;;0.47;;
75854;SDS011;64502;59.976;30.316;2023-05-07T05:48:52;2.10;;;0.70;;
75854;SDS011;64502;59.976;30.316;2023-05-07T05:51:17;5.38;;;0.50;;
75854;SDS011;64502;59.976;30.316;2023-05-07T05:53:43;1.52;;;0.32;;
75854;SDS011;64502;59.976;30.316;2023-05-07T05:56:08;2.35;;;0.70;;
75854;SDS011;64502;59.976;30.316;2023-05-07T05:58:34;1.88;;;0.52;;
75854;SDS011;64502;59.976;30.316;2023-05-07T06:00:59;2.45;;;0.35;;
75854;SDS011;64502;59.976;30.316;2023-05-07T06:03:25;1.08;;;0.22;;
75854;SDS011;64502;59.976;30.316;2023-05-07T06:05:51;2.50;;;0.65;;
75854;SDS011;64502;59.976;30.316;2023-05-07T06:08:16;1.67;;;0.32;;
75854;SDS011;64502;59.976;30.316;2023-05-07T06:10:42;1.23;;;0.40;;
75854;SDS011;64502;59.976;30.316;2023-05-07T06:13:07;1.85;;;0.60;;
75854;SDS011;64502;59.976;30.316;2023-05-07T06:15:33;2.17;;;0.40;;
75854;SDS011;64502;59.976;30.316;2023-05-07T06:17:58;1.42;;;0.40;;
75854;SDS011;64502;59.976;30.316;2023-05-07T06:20:24;2.10;;;0.65;;
75854;SDS011;64502;59.976;30.316;2023-05-07T06:22:49;1.60;;;0.40;;
75854;SDS011;64502;59.976;30.316;2023-05-07T06:25:15;1.48;;;0.38;;
75854;SDS011;64502;59.976;30.316;2023-05-07T06:27:40;4.40;;;0.70;;
75854;SDS011;64502;59.976;30.316;2023-05-07T06:30:06;2.17;;;0.60;;
75854;SDS011;64502;59.976;30.316;2023-05-07T06:32:32;1.58;;;0.50;;
75854;SDS011;64502;59.976;30.316;2023-05-07T06:34:57;1.05;;;0.22;;
75854;SDS011;64502;59.976;30.316;2023-05-07T06:37:23;1.63;;;0.57;;
75854;SDS011;64502;59.976;30.316;2023-05-07T06:39:48;3.05;;;0.52;;
75854;SDS011;64502;59.976;30.316;2023-05-07T06:42:14;2.25;;;0.40;;
75854;SDS011;64502;59.976;30.316;2023-05-07T06:44:39;1.58;;;0.40;;
75854;SDS011;64502;59.976;30.316;2023-05-07T06:47:05;2.30;;;0.50;;
75854;SDS011;64502;59.976;30.316;2023-05-07T06:49:30;1.88;;;0.30;;
75854;SDS011;64502;59.976;30.316;2023-05-07T06:51:56;1.60;;;0.40;;
75854;SDS011;64502;59.976;30.316;2023-05-07T06:54:22;1.80;;;0.30;;
75854;SDS011;64502;59.976;30.316;2023-05-07T06:56:48;1.65;;;0.47;;
75854;SDS011;64502;59.976;30.316;2023-05-07T06:59:13;2.28;;;0.43;;
75854;SDS011;64502;59.976;30.316;2023-05-07T07:01:39;2.20;;;0.50;;
75854;SDS011;64502;59.976;30.316;2023-05-07T07:04:05;1.52;;;0.30;;
75854;SDS011;64502;59.976;30.316;2023-05-07T07:06:30;1.98;;;0.60;;
75854;SDS011;64502;59.976;30.316;2023-05-07T07:08:57;2.28;;;0.40;;
75854;SDS011;64502;59.976;30.316;2023-05-07T07:11:22;0.98;;;0.13;;
75854;SDS011;64502;59.976;30.316;2023-05-07T07:13:48;1.13;;;0.28;;
75854;SDS011;64502;59.976;30.316;2023-05-07T07:16:13;1.10;;;0.30;;
75854;SDS011;64502;59.976;30.316;2023-05-07T07:18:39;4.13;;;0.40;;
75854;SDS011;64502;59.976;30.316;2023-05-07T07:21:04;1.55;;;0.30;;
75854;SDS011;64502;59.976;30.316;2023-05-07T07:23:30;3.35;;;0.45;;
75854;SDS011;64502;59.976;30.316;2023-05-07T07:25:55;2.13;;;0.40;;
75854;SDS011;64502;59.976;30.316;2023-05-07T07:28:21;2.03;;;0.40;;
75854;SDS011;64502;59.976;30.316;2023-05-07T07:30:47;1.63;;;0.43;;
75854;SDS011;64502;59.976;30.316;2023-05-07T07:33:12;1.83;;;0.77;;
75854;SDS011;64502;59.976;30.316;2023-05-07T07:35:38;1.20;;;0.30;;
75854;SDS011;64502;59.976;30.316;2023-05-07T07:38:03;1.85;;;0.50;;
75854;SDS011;64502;59.976;30.316;2023-05-07T07:40:28;3.65;;;0.98;;
75854;SDS011;64502;59.976;30.316;2023-05-07T07:42:54;1.65;;;0.47;;
75854;SDS011;64502;59.976;30.316;2023-05-07T07:45:20;1.35;;;0.43;;
75854;SDS011;64502;59.976;30.316;2023-05-07T07:47:45;2.47;;;0.70;;
75854;SDS011;64502;59.976;30.316;2023-05-07T07:50:11;2.17;;;0.47;;
75854;SDS011;64502;59.976;30.316;2023-05-07T07:52:37;1.65;;;0.60;;
75854;SDS011;64502;59.976;30.316;2023-05-07T07:55:02;1.95;;;0.45;;
75854;SDS011;64502;59.976;30.316;2023-05-07T07:57:28;1.75;;;0.55;;
75854;SDS011;64502;59.976;30.316;2023-05-07T07:59:53;2.97;;;0.45;;
75854;SDS011;64502;59.976;30.316;2023-05-07T08:02:19;3.15;;;0.60;;
75854;SDS011;64502;59.976;30.316;2023-05-07T08:04:45;2.75;;;0.43;;
75854;SDS011;64502;59.976;30.316;2023-05-07T08:07:10;3.25;;;0.55;;
75854;SDS011;64502;59.976;30.316;2023-05-07T08:09:38;2.85;;;1.25;;
75854;SDS011;64502;59.976;30.316;2023-05-07T08:12:04;2.05;;;0.45;;
75854;SDS011;64502;59.976;30.316;2023-05-07T08:14:33;4.20;;;0.77;;
75854;SDS011;64502;59.976;30.316;2023-05-07T08:16:59;4.18;;;0.60;;
75854;SDS011;64502;59.976;30.316;2023-05-07T08:19:24;2.25;;;0.60;;
75854;SDS011;64502;59.976;30.316;2023-05-07T08:21:50;2.70;;;0.68;;
75854;SDS011;64502;59.976;30.316;2023-05-07T08:24:15;4.95;;;0.65;;
75854;SDS011;64502;59.976;30.316;2023-05-07T08:26:41;2.33;;;0.40;;
75854;SDS011;64502;59.976;30.316;2023-05-07T08:29:07;2.53;;;1.15;;
75854;SDS011;64502;59.976;30.316;2023-05-07T08:31:32;2.20;;;0.90;;
75854;SDS011;64502;59.976;30.316;2023-05-07T08:33:58;2.33;;;0.35;;
75854;SDS011;64502;59.976;30.316;2023-05-07T08:36:24;2.10;;;0.20;;
75854;SDS011;64502;59.976;30.316;2023-05-07T08:38:50;2.97;;;0.40;;
75854;SDS011;64502;59.976;30.316;2023-05-07T08:41:16;2.53;;;0.30;;
75854;SDS011;64502;59.976;30.316;2023-05-07T08:43:42;1.27;;;0.20;;
75854;SDS011;64502;59.976;30.316;2023-05-07T08:46:13;2.38;;;0.43;;
75854;SDS011;64502;59.976;30.316;2023-05-07T08:48:45;1.95;;;0.40;;
75854;SDS011;64502;59.976;30.316;2023-05-07T08:51:13;3.15;;;0.47;;
75854;SDS011;64502;59.976;30.316;2023-05-07T08:53:40;1.40;;;0.30;;
75854;SDS011;64502;59.976;30.316;2023-05-07T08:56:07;1.30;;;0.35;;
75854;SDS011;64502;59.976;30.316;2023-05-07T08:58:33;1.25;;;0.43;;
75854;SDS011;64502;59.976;30.316;2023-05-07T09:01:00;2.65;;;0.50;;
75854;SDS011;64502;59.976;30.316;2023-05-07T09:03:28;6.38;;;1.23;;
75854;SDS011;64502;59.976;30.316;2023-05-07T09:05:53;3.40;;;0.73;;
75854;SDS011;64502;59.976;30.316;2023-05-07T09:08:19;1.80;;;0.38;;
75854;SDS011;64502;59.976;30.316;2023-05-07T09:10:51;3.78;;;0.45;;
75854;SDS011;64502;59.976;30.316;2023-05-07T09:13:17;1.27;;;0.28;;
75854;SDS011;64502;59.976;30.316;2023-05-07T09:15:43;2.88;;;0.70;;
75854;SDS011;64502;59.976;30.316;2023-05-07T09:18:08;3.38;;;0.70;;
75854;SDS011;64502;59.976;30.316;2023-05-07T09:20:36;2.00;;;0.40;;
75854;SDS011;64502;59.976;30.316;2023-05-07T09:23:02;2.03;;;0.50;;
75854;SDS011;64502;59.976;30.316;2023-05-07T09:25:32;2.10;;;0.50;;
75854;SDS011;64502;59.976;30.316;2023-05-07T09:27:58;1.08;;;0.25;;
75854;SDS011;64502;59.976;30.316;2023-05-07T09:30:31;2.40;;;0.38;;
75854;SDS011;64502;59.976;30.316;2023-05-07T09:33:00;1.55;;;0.30;;
75854;SDS011;64502;59.976;30.316;2023-05-07T09:35:27;4.85;;;0.35;;
75854;SDS011;64502;59.976;30.316;2023-05-07T09:37:53;1.55;;;0.38;;
75854;SDS011;64502;59.976;30.316;2023-05-07T09:40:25;2.75;;;0.30;;
75854;SDS011;64502;59.976;30.316;2023-05-07T09:42:51;2.90;;;0.30;;
75854;SDS011;64502;59.976;30.316;2023-05-07T09:45:29;1.55;;;0.30;;
75854;SDS011;64502;59.976;30.316;2023-05-07T09:47:57;4.60;;;0.43;;
75854;SDS011;64502;59.976;30.316;2023-05-07T09:50:26;1.20;;;0.25;;
75854;SDS011;64502;59.976;30.316;2023-05-07T09:52:56;2.05;;;0.20;;
75854;SDS011;64502;59.976;30.316;2023-05-07T09:55:22;0.60;;;0.10;;
75854;SDS011;64502;59.976;30.316;2023-05-07T09:57:52;0.85;;;0.15;;
75854;SDS011;64502;59.976;30.316;2023-05-07T10:00:19;1.65;;;0.30;;
75854;SDS011;64502;59.976;30.316;2023-05-07T10:02:46;1.60;;;0.55;;
75854;SDS011;64502;59.976;30.316;2023-05-07T10:05:14;1.55;;;0.30;;
75854;SDS011;64502;59.976;30.316;2023-05-07T10:07:40;0.70;;;0.10;;
75854;SDS011;64502;59.976;30.316;2023-05-07T10:10:06;1.98;;;0.30;;
75854;SDS011;64502;59.976;30.316;2023-05-07T10:12:32;2.28;;;0.13;;
75854;SDS011;64502;59.976;30.316;2023-05-07T10:15:04;1.75;;;0.32;;
75854;SDS011;64502;59.976;30.316;2023-05-07T10:17:32;0.93;;;0.20;;
75854;SDS011;64502;59.976;30.316;2023-05-07T10:20:02;1.05;;;0.20;;
75854;SDS011;64502;59.976;30.316;2023-05-07T10:22:29;1.25;;;0.35;;
75854;SDS011;64502;59.976;30.316;2023-05-07T10:25:02;0.65;;;0.10;;
75854;SDS011;64502;59.976;30.316;2023-05-07T10:27:28;0.57;;;0.00;;
75854;SDS011;64502;59.976;30.316;2023-05-07T10:35:16;1.55;;;0.17;;
75854;SDS011;64502;59.976;30.316;2023-05-07T10:37:45;0.57;;;0.13;;
75854;SDS011;64502;59.976;30.316;2023-05-07T10:40:11;0.77;;;0.00;;
75854;SDS011;64502;59.976;30.316;2023-05-07T10:42:37;1.73;;;0.22;;
75854;SDS011;64502;59.976;30.316;2023-05-07T10:45:13;1.15;;;0.20;;
75854;SDS011;64502;59.976;30.316;2023-05-07T10:50:34;2.05;;;0.20;;
75854;SDS011;64502;59.976;30.316;2023-05-07T10:55:41;0.65;;;0.20;;
75854;SDS011;64502;59.976;30.316;2023-05-07T10:58:26;1.23;;;0.22;;
75854;SDS011;64502;59.976;30.316;2023-05-07T11:00:56;1.77;;;0.10;;
75854;SDS011;64502;59.976;30.316;2023-05-07T11:03:23;1.58;;;0.10;;
75854;SDS011;64502;59.976;30.316;2023-05-07T11:06:08;5.13;;;0.60;;
75854;SDS011;64502;59.976;30.316;2023-05-07T11:08:57;2.65;;;0.30;;
75854;SDS011;64502;59.976;30.316;2023-05-07T11:14:11;2.67;;;0.20;;
75854;SDS011;64502;59.976;30.316;2023-05-07T11:16:37;2.50;;;0.20;;
75854;SDS011;64502;59.976;30.316;2023-05-07T11:19:03;1.05;;;0.10;;
75854;SDS011;64502;59.976;30.316;2023-05-07T11:23:58;0.90;;;0.20;;
75854;SDS011;64502;59.976;30.316;2023-05-07T11:26:25;1.05;;;0.25;;
75854;SDS011;64502;59.976;30.316;2023-05-07T11:28:50;0.93;;;0.30;;
75854;SDS011;64502;59.976;30.316;2023-05-07T11:31:21;2.78;;;0.30;;
75854;SDS011;64502;59.976;30.316;2023-05-07T11:33:48;3.05;;;0.57;;
75854;SDS011;64502;59.976;30.316;2023-05-07T11:36:14;2.88;;;0.20;;
75854;SDS011;64502;59.976;30.316;2023-05-07T11:38:40;2.13;;;0.22;;
75854;SDS011;64502;59.976;30.316;2023-05-07T11:41:06;2.13;;;0.17;;
75854;SDS011;64502;59.976;30.316;2023-05-07T11:43:32;0.80;;;0.20;;
75854;SDS011;64502;59.976;30.316;2023-05-07T11:46:05;2.85;;;0.40;;
75854;SDS011;64502;59.976;30.316;2023-05-07T11:48:32;3.15;;;0.40;;
75854;SDS011;64502;59.976;30.316;2023-05-07T11:53:26;1.20;;;0.17;;
75854;SDS011;64502;59.976;30.316;2023-05-07T11:55:53;2.35;;;0.43;;
75854;SDS011;64502;59.976;30.316;2023-05-07T11:58:24;1.02;;;0.13;;
75854;SDS011;64502;59.976;30.316;2023-05-07T12:00:53;3.08;;;0.30;;
75854;SDS011;64502;59.976;30.316;2023-05-07T12:03:19;3.00;;;0.30;;
75854;SDS011;64502;59.976;30.316;2023-05-07T12:05:47;3.35;;;0.50;;
75854;SDS011;64502;59.976;30.316;2023-05-07T12:08:16;0.90;;;0.20;;
75854;SDS011;64502;59.976;30.316;2023-05-07T12:10:46;1.52;;;0.43;;
75854;SDS011;64502;59.976;30.316;2023-05-07T12:15:52;2.55;;;0.43;;
75854;SDS011;64502;59.976;30.316;2023-05-07T12:18:19;1.98;;;0.30;;
75854;SDS011;64502;59.976;30.316;2023-05-07T12:20:45;4.15;;;0.77;;
75854;SDS011;64502;59.976;30.316;2023-05-07T12:23:11;3.97;;;0.57;;
75854;SDS011;64502;59.976;30.316;2023-05-07T12:25:38;2.33;;;0.60;;
75854;SDS011;64502;59.976;30.316;2023-05-07T12:28:05;3.05;;;0.50;;
75854;SDS011;64502;59.976;30.316;2023-05-07T12:30:32;1.83;;;0.40;;
75854;SDS011;64502;59.976;30.316;2023-05-07T12:33:01;1.55;;;0.35;;
75854;SDS011;64502;59.976;30.316;2023-05-07T12:35:30;1.77;;;0.20;;
75854;SDS011;64502;59.976;30.316;2023-05-07T12:37:57;2.67;;;0.32;;
75854;SDS011;64502;59.976;30.316;2023-05-07T12:40:29;1.17;;;0.32;;
75854;SDS011;64502;59.976;30.316;2023-05-07T12:43:00;2.92;;;0.60;;
75854;SDS011;64502;59.976;30.316;2023-05-07T12:45:26;1.13;;;0.30;;
75854;SDS011;64502;59.976;30.316;2023-05-07T12:47:51;1.20;;;0.20;;
75854;SDS011;64502;59.976;30.316;2023-05-07T12:50:17;0.77;;;0.10;;
75854;SDS011;64502;59.976;30.316;2023-05-07T12:52:43;1.55;;;0.20;;
75854;SDS011;64502;59.976;30.316;2023-05-07T12:55:12;1.25;;;0.22;;
75854;SDS011;64502;59.976;30.316;2023-05-07T12:57:43;2.90;;;0.45;;
75854;SDS011;64502;59.976;30.316;2023-05-07T13:00:12;1.77;;;0.43;;
75854;SDS011;64502;59.976;30.316;2023-05-07T13:02:39;2.97;;;0.25;;
75854;SDS011;64502;59.976;30.316;2023-05-07T13:05:06;2.97;;;0.38;;
75854;SDS011;64502;59.976;30.316;2023-05-07T13:07:32;2.60;;;0.57;;
75854;SDS011;64502;59.976;30.316;2023-05-07T13:09:58;3.38;;;0.40;;
75854;SDS011;64502;59.976;30.316;2023-05-07T13:12:23;3.47;;;0.38;;
75854;SDS011;64502;59.976;30.316;2023-05-07T13:14:49;3.38;;;0.63;;
75854;SDS011;64502;59.976;30.316;2023-05-07T13:17:14;4.80;;;0.65;;
75854;SDS011;64502;59.976;30.316;2023-05-07T13:19:39;2.53;;;0.45;;
75854;SDS011;64502;59.976;30.316;2023-05-07T13:22:05;4.03;;;0.55;;
75854;SDS011;64502;59.976;30.316;2023-05-07T13:24:30;4.13;;;0.68;;
75854;SDS011;64502;59.976;30.316;2023-05-07T13:26:56;3.30;;;0.70;;
75854;SDS011;64502;59.976;30.316;2023-05-07T13:29:21;4.38;;;0.60;;
75854;SDS011;64502;59.976;30.316;2023-05-07T13:31:54;3.03;;;0.43;;
75854;SDS011;64502;59.976;30.316;2023-05-07T13:34:19;2.40;;;0.40;;
75854;SDS011;64502;59.976;30.316;2023-05-07T13:36:45;2.20;;;0.28;;
75854;SDS011;64502;59.976;30.316;2023-05-07T13:39:10;4.40;;;0.50;;
75854;SDS011;64502;59.976;30.316;2023-05-07T13:41:36;2.47;;;0.45;;
75854;SDS011;64502;59.976;30.316;2023-05-07T13:44:01;1.27;;;0.45;;
75854;SDS011;64502;59.976;30.316;2023-05-07T13:46:27;4.57;;;0.70;;
75854;SDS011;64502;59.976;30.316;2023-05-07T13:48:52;2.30;;;0.47;;
75854;SDS011;64502;59.976;30.316;2023-05-07T13:51:18;2.22;;;0.60;;
75854;SDS011;64502;59.976;30.316;2023-05-07T13:53:43;3.85;;;0.82;;
75854;SDS011;64502;59.976;30.316;2023-05-07T13:56:08;3.30;;;0.90;;
75854;SDS011;64502;59.976;30.316;2023-05-07T13:58:34;4.00;;;0.57;;
75854;SDS011;64502;59.976;30.316;2023-05-07T14:01:01;2.70;;;0.57;;
75854;SDS011;64502;59.976;30.316;2023-05-07T14:03:26;2.97;;;1.00;;
75854;SDS011;64502;59.976;30.316;2023-05-07T14:05:52;1.70;;;0.80;;
75854;SDS011;64502;59.976;30.316;2023-05-07T14:08:18;2.05;;;0.90;;
75854;SDS011;64502;59.976;30.316;2023-05-07T14:10:45;2.58;;;0.60;;
75854;SDS011;64502;59.976;30.316;2023-05-07T14:13:11;3.08;;;0.50;;
75854;SDS011;64502;59.976;30.316;2023-05-07T14:15:36;2.53;;;0.63;;
75854;SDS011;64502;59.976;30.316;2023-05-07T14:18:02;2.65;;;0.52;;
75854;SDS011;64502;59.976;30.316;2023-05-07T14:20:28;3.00;;;0.43;;
75854;SDS011;64502;59.976;30.316;2023-05-07T14:22:55;2.13;;;0.90;;
75854;SDS011;64502;59.976;30.316;2023-05-07T14:25:20;1.58;;;0.35;;
75854;SDS011;64502;59.976;30.316;2023-05-07T14:27:46;1.33;;;0.50;;
75854;SDS011;64502;59.976;30.316;2023-05-07T14:30:11;2.15;;;0.63;;
75854;SDS011;64502;59.976;30.316;2023-05-07T14:32:37;2.25;;;0.50;;
75854;SDS011;64502;59.976;30.316;2023-05-07T14:35:03;2.65;;;0.60;;
75854;SDS011;64502;59.976;30.316;2023-05-07T14:37:28;2.45;;;0.88;;
75854;SDS011;64502;59.976;30.316;2023-05-07T14:39:54;1.42;;;0.68;;
75854;SDS011;64502;59.976;30.316;2023-05-07T14:42:19;3.42;;;0.88;;
75854;SDS011;64502;59.976;30.316;2023-05-07T14:44:45;2.33;;;0.57;;
75854;SDS011;64502;59.976;30.316;2023-05-07T14:47:12;1.85;;;0.68;;
75854;SDS011;64502;59.976;30.316;2023-05-07T14:49:38;2.53;;;0.55;;